createdAt,value
2018-12-06T00:01:17.876Z,6.44
2018-12-06T00:03:45.795Z,6.50
2018-12-06T00:06:13.446Z,6.54
2018-12-06T00:08:40.974Z,6.50
2018-12-06T00:11:08.494Z,6.45
2018-12-06T00:13:35.895Z,6.44
2018-12-06T00:16:03.463Z,6.51
2018-12-06T00:18:31.099Z,6.52
2018-12-06T00:20:58.743Z,6.43
2018-12-06T00:23:26.416Z,6.35
2018-12-06T00:25:54.009Z,6.32
2018-12-06T00:28:21.608Z,6.31
2018-12-06T00:30:49.273Z,6.31
2018-12-06T00:33:17.326Z,6.33
2018-12-06T00:35:44.652Z,6.36
2018-12-06T00:38:12.253Z,6.37
2018-12-06T00:40:40.243Z,6.53
2018-12-06T00:43:07.914Z,6.46
2018-12-06T00:45:35.600Z,6.39
2018-12-06T00:48:03.333Z,6.34
2018-12-06T00:50:30.674Z,6.34
2018-12-06T00:52:58.152Z,6.35
2018-12-06T00:55:25.673Z,6.38
2018-12-06T00:57:53.336Z,6.40
2018-12-06T01:00:20.957Z,6.39
2018-12-06T01:02:48.586Z,6.42
2018-12-06T01:05:16.401Z,6.42
2018-12-06T01:07:44.095Z,6.42
2018-12-06T01:10:11.924Z,6.42
2018-12-06T01:12:39.591Z,6.41
2018-12-06T01:15:25.631Z,6.39
2018-12-06T01:17:53.504Z,6.32
2018-12-06T01:20:21.252Z,6.30
2018-12-06T01:22:48.977Z,6.28
2018-12-06T01:25:16.452Z,6.26
2018-12-06T01:27:44.214Z,6.24
2018-12-06T01:30:12.039Z,6.23
2018-12-06T01:32:39.728Z,6.21
2018-12-06T01:35:07.315Z,6.20
2018-12-06T01:37:35.936Z,6.20
2018-12-06T01:40:03.861Z,6.23
2018-12-06T01:42:31.212Z,6.23
2018-12-06T01:44:59.149Z,6.12
2018-12-06T01:47:26.578Z,6.07
2018-12-06T01:49:54.432Z,6.10
2018-12-06T01:52:22.056Z,6.12
2018-12-06T01:54:49.860Z,6.12
2018-12-06T01:57:17.580Z,6.19
2018-12-06T01:59:45.220Z,6.25
2018-12-06T02:02:12.943Z,6.26
2018-12-06T02:04:40.586Z,6.26
2018-12-06T02:07:08.267Z,6.30
2018-12-06T02:09:35.962Z,6.33
2018-12-06T02:12:03.660Z,6.38
2018-12-06T02:14:31.384Z,6.42
2018-12-06T02:16:59.046Z,6.46
2018-12-06T02:19:27.386Z,6.44
2018-12-06T02:21:54.952Z,6.45
2018-12-06T02:24:22.402Z,6.50
2018-12-06T02:26:50.062Z,6.53
2018-12-06T02:29:17.446Z,6.55
2018-12-06T02:31:45.076Z,6.56
2018-12-06T02:34:12.793Z,6.57
2018-12-06T02:36:40.400Z,6.58
2018-12-06T02:39:08.324Z,6.57
2018-12-06T02:41:35.696Z,6.54
2018-12-06T02:44:03.521Z,6.54
2018-12-06T02:46:31.028Z,6.57
2018-12-06T02:48:58.682Z,6.59
2018-12-06T02:51:26.555Z,6.61
2018-12-06T02:53:54.256Z,6.61
2018-12-06T02:56:21.724Z,6.62
2018-12-06T02:58:49.326Z,6.59
2018-12-06T03:01:16.956Z,6.56
2018-12-06T03:03:44.529Z,6.58
2018-12-06T03:06:12.186Z,6.62
2018-12-06T03:08:39.910Z,6.62
2018-12-06T03:11:07.238Z,6.62
2018-12-06T03:13:34.917Z,6.65
2018-12-06T03:16:02.266Z,6.63
2018-12-06T03:18:29.850Z,6.61
2018-12-06T03:20:57.344Z,6.61
2018-12-06T03:23:24.912Z,6.60
2018-12-06T03:25:52.614Z,6.61
2018-12-06T03:28:20.250Z,6.63
2018-12-06T03:30:48.122Z,6.62
2018-12-06T03:33:15.842Z,6.62
2018-12-06T03:35:43.427Z,6.64
2018-12-06T03:38:11.017Z,6.68
2018-12-06T03:40:38.494Z,6.67
2018-12-06T03:43:06.091Z,6.69
2018-12-06T03:45:33.657Z,6.69
2018-12-06T03:48:01.381Z,6.69
2018-12-06T03:50:29.079Z,6.72
2018-12-06T03:52:56.461Z,6.67
2018-12-06T03:55:24.067Z,6.64
2018-12-06T03:57:51.596Z,6.66
2018-12-06T04:00:19.066Z,6.67
2018-12-06T04:02:46.639Z,6.67
2018-12-06T04:05:14.454Z,6.70
2018-12-06T04:07:42.049Z,6.71
2018-12-06T04:10:09.610Z,6.73
2018-12-06T04:12:37.413Z,6.69
2018-12-06T04:15:05.513Z,6.71
2018-12-06T04:17:33.175Z,6.72
2018-12-06T04:20:00.920Z,6.74
2018-12-06T04:22:28.589Z,6.74
2018-12-06T04:24:56.171Z,6.77
2018-12-06T04:27:23.793Z,6.78
2018-12-06T04:29:51.469Z,6.81
2018-12-06T04:32:19.050Z,6.84
2018-12-06T04:34:46.488Z,6.85
2018-12-06T04:37:14.353Z,6.85
2018-12-06T04:39:41.682Z,6.88
2018-12-06T04:42:09.281Z,6.91
2018-12-06T04:44:36.805Z,6.90
2018-12-06T04:47:04.477Z,6.91
2018-12-06T04:49:32.261Z,6.94
2018-12-06T04:51:59.977Z,6.96
2018-12-06T04:54:27.604Z,6.99
2018-12-06T04:56:55.317Z,7.04
2018-12-06T04:59:23.062Z,7.04
2018-12-06T05:01:50.768Z,7.06
2018-12-06T05:04:18.620Z,7.08
2018-12-06T05:06:46.237Z,7.09
2018-12-06T05:09:13.725Z,7.10
2018-12-06T05:11:41.369Z,7.11
2018-12-06T05:14:09.148Z,7.12
2018-12-06T05:16:36.559Z,7.19
2018-12-06T05:19:04.181Z,7.17
2018-12-06T05:21:31.521Z,7.17
2018-12-06T05:23:59.329Z,7.18
2018-12-06T05:26:26.725Z,7.17
2018-12-06T05:28:54.404Z,7.17
2018-12-06T05:31:21.910Z,7.18
2018-12-06T05:33:49.988Z,7.18
2018-12-06T05:36:17.894Z,7.19
2018-12-06T05:38:45.560Z,7.24
2018-12-06T05:41:13.307Z,7.27
2018-12-06T05:43:40.782Z,7.30
2018-12-06T05:46:08.403Z,7.31
2018-12-06T05:48:35.912Z,7.32
2018-12-06T05:51:03.628Z,7.34
2018-12-06T05:53:31.152Z,7.36
2018-12-06T05:55:58.901Z,7.38
2018-12-06T05:58:26.477Z,7.40
2018-12-06T06:00:54.117Z,7.40
2018-12-06T06:03:21.544Z,7.40
2018-12-06T06:05:48.956Z,7.38
2018-12-06T06:08:16.392Z,7.35
2018-12-06T06:10:44.012Z,7.37
2018-12-06T06:13:11.531Z,7.41
2018-12-06T06:15:39.200Z,7.43
2018-12-06T06:18:06.736Z,7.45
2018-12-06T06:20:34.228Z,7.50
2018-12-06T06:23:01.769Z,7.48
2018-12-06T06:25:29.491Z,7.47
2018-12-06T06:27:57.230Z,7.46
2018-12-06T06:30:24.745Z,7.45
2018-12-06T06:32:52.374Z,7.46
2018-12-06T06:35:19.999Z,7.50
2018-12-06T06:37:47.678Z,7.51
2018-12-06T06:40:15.301Z,7.54
2018-12-06T06:42:42.960Z,7.54
2018-12-06T06:45:10.399Z,7.55
2018-12-06T06:47:38.016Z,7.56
2018-12-06T06:50:05.800Z,7.58
2018-12-06T06:52:33.456Z,7.63
2018-12-06T06:55:01.046Z,7.83
2018-12-06T06:57:28.642Z,7.81
2018-12-06T06:59:56.215Z,7.75
2018-12-06T07:02:23.960Z,7.72
2018-12-06T07:04:51.536Z,7.69
2018-12-06T07:07:19.178Z,7.68
2018-12-06T07:09:46.806Z,7.70
2018-12-06T07:12:14.545Z,7.72
2018-12-06T07:14:42.126Z,7.74
2018-12-06T07:17:09.825Z,7.76
2018-12-06T07:19:37.414Z,7.82
2018-12-06T07:22:05.035Z,7.86
2018-12-06T07:24:32.620Z,7.86
2018-12-06T07:27:00.037Z,7.89
2018-12-06T07:29:27.602Z,7.90
2018-12-06T07:31:54.993Z,8.04
2018-12-06T07:34:22.528Z,8.19
2018-12-06T07:36:50.504Z,8.17
2018-12-06T07:39:18.254Z,8.17
2018-12-06T07:41:52.677Z,8.14
2018-12-06T07:44:20.691Z,8.05
2018-12-06T07:46:48.159Z,8.01
2018-12-06T07:49:15.756Z,7.99
2018-12-06T07:51:43.369Z,7.97
2018-12-06T07:54:11.155Z,7.98
2018-12-06T07:56:39.059Z,8.00
2018-12-06T07:59:06.763Z,8.01
2018-12-06T08:01:34.545Z,8.02
2018-12-06T08:04:02.148Z,8.02
2018-12-06T08:06:29.869Z,8.05
2018-12-06T08:08:57.519Z,8.08
2018-12-06T08:11:25.083Z,8.13
2018-12-06T08:13:52.607Z,8.17
2018-12-06T08:16:20.195Z,8.20
2018-12-06T08:18:47.559Z,8.26
2018-12-06T08:21:15.301Z,8.32
2018-12-06T08:23:43.040Z,8.32
2018-12-06T08:26:10.692Z,8.32
2018-12-06T08:28:38.347Z,8.43
2018-12-06T08:31:05.919Z,8.45
2018-12-06T08:33:33.415Z,8.46
2018-12-06T08:36:00.933Z,8.51
2018-12-06T08:38:28.766Z,8.56
2018-12-06T08:40:56.357Z,8.62
2018-12-06T08:43:24.313Z,8.67
2018-12-06T08:45:51.896Z,8.74
2018-12-06T08:48:20.133Z,8.78
2018-12-06T08:50:47.544Z,8.82
2018-12-06T08:53:43.884Z,8.87
2018-12-06T08:56:11.635Z,8.90
2018-12-06T08:58:39.245Z,8.93
2018-12-06T09:01:08.508Z,8.92
2018-12-06T09:03:36.735Z,8.90
2018-12-06T09:06:04.304Z,8.97
2018-12-06T09:08:31.876Z,9.03
2018-12-06T09:10:59.300Z,9.10
2018-12-06T09:13:26.937Z,9.16
2018-12-06T09:15:54.664Z,9.24
2018-12-06T09:18:22.302Z,9.33
2018-12-06T09:20:49.664Z,9.39
2018-12-06T09:23:17.409Z,9.44
2018-12-06T09:25:46.353Z,9.52
2018-12-06T09:28:14.331Z,9.55
2018-12-06T09:30:41.915Z,9.59
2018-12-06T09:33:09.477Z,9.61
2018-12-06T09:35:37.056Z,9.61
2018-12-06T09:38:04.589Z,9.61
2018-12-06T09:40:32.348Z,9.65
2018-12-06T09:42:59.977Z,9.68
2018-12-06T09:45:28.477Z,9.72
2018-12-06T09:47:56.392Z,9.73
2018-12-06T09:50:24.036Z,9.71
2018-12-06T09:52:51.391Z,9.70
2018-12-06T09:55:19.114Z,9.68
2018-12-06T09:57:46.573Z,9.62
2018-12-06T10:00:16.151Z,9.62
2018-12-06T10:02:43.723Z,9.56
2018-12-06T10:05:11.665Z,9.49
2018-12-06T10:07:39.431Z,9.40
2018-12-06T10:10:07.307Z,9.36
2018-12-06T10:12:34.897Z,9.36
2018-12-06T10:15:03.022Z,9.32
2018-12-06T10:17:30.728Z,9.30
2018-12-06T10:19:58.244Z,9.29
2018-12-06T10:22:25.944Z,9.30
2018-12-06T10:24:53.880Z,9.32
2018-12-06T10:27:21.542Z,9.39
2018-12-06T10:29:49.104Z,9.42
2018-12-06T10:32:16.756Z,9.45
2018-12-06T10:34:45.428Z,9.48
2018-12-06T10:37:13.636Z,9.54
2018-12-06T10:39:41.032Z,9.57
2018-12-06T10:42:08.994Z,9.57
2018-12-06T10:44:36.540Z,9.61
2018-12-06T10:47:05.180Z,9.66
2018-12-06T10:49:32.859Z,9.68
2018-12-06T10:52:00.540Z,9.69
2018-12-06T10:54:28.132Z,9.75
2018-12-06T10:56:55.966Z,9.86
2018-12-06T10:59:23.576Z,10.04
2018-12-06T11:01:57.075Z,10.28
2018-12-06T11:04:29.164Z,10.58
2018-12-06T11:06:57.068Z,10.77
2018-12-06T11:09:24.801Z,10.90
2018-12-06T11:11:52.404Z,10.98
2018-12-06T11:14:20.016Z,11.04
2018-12-06T11:16:47.643Z,11.09
2018-12-06T11:19:15.326Z,11.10
2018-12-06T11:21:42.808Z,11.12
2018-12-06T11:24:10.496Z,11.23
2018-12-06T11:26:38.015Z,11.40
2018-12-06T11:29:05.813Z,11.39
2018-12-06T11:31:33.505Z,11.32
2018-12-06T11:34:01.051Z,11.31
2018-12-06T11:36:28.680Z,11.38
2018-12-06T11:38:56.325Z,11.45
2018-12-06T11:41:24.049Z,11.49
2018-12-06T11:43:51.738Z,11.47
2018-12-06T11:46:19.467Z,11.42
2018-12-06T11:48:47.040Z,11.37
2018-12-06T11:51:14.576Z,11.33
2018-12-06T11:53:42.189Z,11.29
2018-12-06T11:56:09.816Z,11.27
2018-12-06T11:58:37.403Z,11.23
2018-12-06T12:01:05.144Z,11.25
2018-12-06T12:03:32.524Z,11.30
2018-12-06T12:05:59.938Z,11.39
2018-12-06T12:08:27.310Z,11.45
2018-12-06T12:10:55.013Z,11.46
2018-12-06T12:13:22.401Z,11.47
2018-12-06T12:15:49.985Z,11.49
2018-12-06T12:18:17.686Z,11.55
2018-12-06T12:20:45.081Z,11.59
2018-12-06T12:23:12.825Z,11.60
2018-12-06T12:25:40.431Z,11.69
2018-12-06T12:28:08.249Z,11.78
2018-12-06T12:30:35.905Z,11.85
2018-12-06T12:33:03.587Z,11.96
2018-12-06T12:35:30.975Z,12.07
2018-12-06T12:37:58.473Z,12.08
2018-12-06T12:40:26.037Z,12.04
2018-12-06T12:42:53.703Z,11.97
2018-12-06T12:45:21.381Z,11.89
2018-12-06T12:47:48.960Z,11.79
2018-12-06T12:50:16.393Z,11.70
2018-12-06T12:52:44.032Z,11.69
2018-12-06T12:55:11.388Z,11.66
2018-12-06T12:57:39.031Z,11.64
2018-12-06T13:00:07.171Z,11.65
2018-12-06T13:02:34.873Z,11.66
2018-12-06T13:05:02.797Z,11.69
2018-12-06T13:07:30.657Z,11.65
2018-12-06T13:09:58.281Z,11.60
2018-12-06T13:12:25.937Z,11.57
2018-12-06T13:14:53.547Z,11.55
2018-12-06T13:17:21.257Z,11.46
2018-12-06T13:19:49.017Z,11.37
2018-12-06T13:22:16.677Z,11.38
2018-12-06T13:24:44.329Z,11.35
2018-12-06T13:27:12.053Z,11.23
2018-12-06T13:29:39.639Z,11.16
2018-12-06T13:32:07.186Z,11.12
2018-12-06T13:34:34.860Z,11.07
2018-12-06T13:37:02.285Z,11.03
2018-12-06T13:39:29.865Z,10.98
2018-12-06T13:41:57.589Z,10.95
2018-12-06T13:44:25.391Z,10.93
2018-12-06T13:46:52.989Z,10.93
2018-12-06T13:49:20.759Z,10.92
2018-12-06T13:51:48.385Z,10.96
2018-12-06T13:54:16.093Z,11.01
2018-12-06T13:56:44.047Z,11.06
2018-12-06T13:59:11.644Z,11.07
2018-12-06T14:01:39.221Z,11.04
2018-12-06T14:04:07.138Z,11.01
2018-12-06T14:06:34.743Z,10.99
2018-12-06T14:09:03.101Z,11.01
2018-12-06T14:11:31.210Z,10.99
2018-12-06T14:13:58.664Z,10.99
2018-12-06T14:16:26.271Z,10.98
2018-12-06T14:18:53.710Z,10.96
2018-12-06T14:21:21.206Z,10.96
2018-12-06T14:23:48.673Z,10.93
2018-12-06T14:26:16.335Z,10.91
2018-12-06T14:28:43.971Z,10.90
2018-12-06T14:31:11.644Z,10.88
2018-12-06T14:33:39.632Z,10.87
2018-12-06T14:36:07.257Z,10.91
2018-12-06T14:38:34.895Z,10.95
2018-12-06T14:41:02.553Z,10.95
2018-12-06T14:43:30.360Z,10.94
2018-12-06T14:45:58.322Z,10.90
2018-12-06T14:48:26.347Z,10.88
2018-12-06T14:50:53.847Z,10.82
2018-12-06T14:53:21.528Z,10.79
2018-12-06T14:55:49.119Z,10.76
2018-12-06T14:58:16.716Z,10.76
2018-12-06T15:00:44.082Z,10.74
2018-12-06T15:03:11.628Z,10.78
2018-12-06T15:05:39.081Z,10.82
2018-12-06T15:08:06.716Z,10.88
2018-12-06T15:10:34.221Z,10.84
2018-12-06T15:13:01.842Z,10.78
2018-12-06T15:15:29.534Z,10.74
2018-12-06T15:17:57.309Z,10.69
2018-12-06T15:20:25.038Z,10.73
2018-12-06T15:22:52.725Z,10.84
2018-12-06T15:25:20.616Z,10.86
2018-12-06T15:27:48.681Z,10.88
2018-12-06T15:30:16.240Z,10.89
2018-12-06T15:32:44.062Z,10.88
2018-12-06T15:35:11.930Z,10.87
2018-12-06T15:37:39.495Z,10.86
2018-12-06T15:40:07.688Z,10.82
2018-12-06T15:42:35.183Z,10.77
2018-12-06T15:45:02.967Z,10.76
2018-12-06T15:47:30.715Z,10.74
2018-12-06T15:49:58.412Z,10.69
2018-12-06T15:52:25.911Z,10.64
2018-12-06T15:54:53.662Z,10.54
2018-12-06T15:57:21.171Z,10.43
2018-12-06T15:59:48.780Z,10.28
2018-12-06T16:02:31.633Z,10.03
2018-12-06T16:04:59.262Z,9.84
2018-12-06T16:07:26.842Z,9.74
2018-12-06T16:09:54.705Z,9.55
2018-12-06T16:12:22.517Z,9.46
2018-12-06T16:14:50.365Z,9.48
2018-12-06T16:17:17.889Z,9.55
2018-12-06T16:19:45.720Z,9.59
2018-12-06T16:22:13.535Z,9.63
2018-12-06T16:24:41.346Z,9.70
2018-12-06T16:27:09.001Z,9.79
2018-12-06T16:29:36.629Z,9.93
2018-12-06T16:32:04.368Z,9.99
2018-12-06T16:34:31.873Z,10.04
2018-12-06T16:36:59.467Z,10.19
2018-12-06T16:39:26.874Z,10.28
2018-12-06T16:41:54.765Z,10.34
2018-12-06T16:44:22.548Z,10.49
2018-12-06T16:46:50.251Z,10.63
2018-12-06T16:49:17.999Z,10.72
2018-12-06T16:51:45.586Z,10.73
2018-12-06T16:54:13.307Z,10.79
2018-12-06T16:56:43.688Z,10.79
2018-12-06T16:59:11.442Z,10.77
2018-12-06T17:01:39.074Z,10.72
2018-12-06T17:04:06.885Z,10.77
2018-12-06T17:06:34.758Z,10.87
2018-12-06T17:09:04.738Z,10.96
2018-12-06T17:11:32.564Z,10.96
2018-12-06T17:14:01.581Z,10.96
2018-12-06T17:16:29.088Z,10.91
2018-12-06T17:18:56.841Z,10.93
2018-12-06T17:21:24.348Z,11.05
2018-12-06T17:23:52.412Z,11.11
2018-12-06T17:26:20.039Z,11.24
2018-12-06T17:28:47.799Z,11.22
2018-12-06T17:31:15.624Z,11.22
2018-12-06T17:33:43.385Z,11.15
2018-12-06T17:36:11.232Z,11.07
2018-12-06T17:38:39.029Z,11.01
2018-12-06T17:41:06.379Z,11.17
2018-12-06T17:43:33.979Z,11.29
2018-12-06T17:46:01.736Z,11.21
2018-12-06T17:48:29.559Z,11.13
2018-12-06T17:50:57.190Z,11.16
2018-12-06T17:53:25.067Z,11.18
2018-12-06T17:55:54.503Z,11.13
2018-12-06T17:58:22.181Z,11.08
2018-12-06T18:00:50.153Z,11.02
2018-12-06T18:03:17.641Z,10.92
2018-12-06T18:05:45.242Z,10.82
2018-12-06T18:08:12.746Z,10.76
2018-12-06T18:10:40.719Z,10.71
2018-12-06T18:13:08.342Z,10.68
2018-12-06T18:15:36.468Z,10.72
2018-12-06T18:18:04.132Z,10.82
2018-12-06T18:20:31.576Z,10.86
2018-12-06T18:22:59.456Z,10.88
2018-12-06T18:25:27.125Z,10.92
2018-12-06T18:27:55.007Z,10.88
2018-12-06T18:30:22.768Z,11.04
2018-12-06T18:32:50.409Z,11.13
2018-12-06T18:35:18.372Z,11.31
2018-12-06T18:37:46.224Z,11.28
2018-12-06T18:40:13.920Z,11.20
2018-12-06T18:42:41.583Z,11.26
2018-12-06T18:45:09.122Z,11.40
2018-12-06T18:47:36.969Z,11.43
2018-12-06T18:50:04.745Z,11.44
2018-12-06T18:52:32.529Z,11.45
2018-12-06T18:55:00.139Z,11.45
2018-12-06T18:57:27.882Z,11.46
2018-12-06T18:59:55.562Z,11.38
2018-12-06T19:02:23.109Z,11.34
2018-12-06T19:04:50.842Z,11.31
2018-12-06T19:07:18.731Z,11.31
2018-12-06T19:09:46.258Z,11.44
2018-12-06T19:12:13.908Z,11.52
2018-12-06T19:14:41.748Z,11.59
2018-12-06T19:17:09.366Z,11.60
2018-12-06T19:19:36.978Z,11.59
2018-12-06T19:22:04.818Z,11.53
2018-12-06T19:24:32.784Z,11.47
2018-12-06T19:27:00.576Z,11.44
2018-12-06T19:29:28.272Z,11.41
2018-12-06T19:31:56.455Z,11.44
2018-12-06T19:34:24.253Z,11.44
2018-12-06T19:36:53.055Z,11.44
2018-12-06T19:39:21.436Z,11.43
2018-12-06T19:41:49.340Z,11.43
2018-12-06T19:44:17.008Z,11.42
2018-12-06T19:46:45.143Z,11.41
2018-12-06T19:49:12.992Z,11.41
2018-12-06T19:51:41.039Z,11.39
2018-12-06T19:54:08.724Z,11.43
2018-12-06T19:56:37.296Z,11.43
2018-12-06T19:59:06.824Z,11.40
2018-12-06T20:01:36.389Z,11.51
2018-12-06T20:04:04.102Z,11.47
2018-12-06T20:06:31.934Z,11.48
2018-12-06T20:08:59.519Z,11.50
2018-12-06T20:11:27.280Z,11.63
2018-12-06T20:13:55.256Z,11.62
2018-12-06T20:16:22.934Z,11.65
2018-12-06T20:18:50.636Z,11.66
2018-12-06T20:21:18.355Z,11.66
2018-12-06T20:23:45.788Z,11.65
2018-12-06T20:26:14.440Z,11.67
2018-12-06T20:28:42.104Z,11.71
2018-12-06T20:31:09.799Z,11.79
2018-12-06T20:33:37.385Z,11.80
2018-12-06T20:36:04.943Z,11.87
2018-12-06T20:38:32.654Z,11.97
2018-12-06T20:41:00.383Z,12.04
2018-12-06T20:43:28.201Z,12.05
2018-12-06T20:45:55.981Z,12.09
2018-12-06T20:48:23.590Z,12.19
2018-12-06T20:50:51.194Z,12.24
2018-12-06T20:53:18.907Z,12.28
2018-12-06T20:55:46.680Z,12.24
2018-12-06T20:58:15.187Z,12.27
2018-12-06T21:00:43.033Z,12.19
2018-12-06T21:03:10.831Z,12.09
2018-12-06T21:05:38.281Z,12.14
2018-12-06T21:08:06.009Z,12.10
2018-12-06T21:10:33.823Z,12.06
2018-12-06T21:13:01.533Z,12.02
2018-12-06T21:15:29.197Z,11.99
2018-12-06T21:17:56.725Z,11.98
2018-12-06T21:20:24.416Z,11.98
2018-12-06T21:22:52.179Z,11.97
2018-12-06T21:25:19.807Z,12.04
2018-12-06T21:27:47.559Z,12.03
2018-12-06T21:30:15.135Z,12.01
2018-12-06T21:32:42.825Z,12.03
2018-12-06T21:35:10.512Z,12.02
2018-12-06T21:37:38.458Z,12.08
2018-12-06T21:40:06.532Z,12.09
2018-12-06T21:42:34.046Z,12.23
2018-12-06T21:45:01.587Z,12.34
2018-12-06T21:47:29.158Z,12.31
2018-12-06T21:49:56.796Z,12.27
2018-12-06T21:52:24.652Z,12.19
2018-12-06T21:54:52.190Z,12.17
2018-12-06T21:57:19.970Z,12.12
2018-12-06T21:59:47.770Z,12.11
2018-12-06T22:02:22.863Z,12.11
2018-12-06T22:04:50.634Z,12.11
2018-12-06T22:07:18.367Z,12.10
2018-12-06T22:09:46.179Z,12.20
2018-12-06T22:12:13.810Z,12.43
2018-12-06T22:14:41.385Z,12.35
2018-12-06T22:17:09.095Z,12.29
2018-12-06T22:19:36.811Z,12.23
2018-12-06T22:22:04.548Z,12.18
2018-12-06T22:24:32.183Z,12.15
2018-12-06T22:26:59.776Z,12.16
2018-12-06T22:29:27.228Z,12.13
2018-12-06T22:31:55.054Z,12.16
2018-12-06T22:34:22.436Z,12.23
2018-12-06T22:36:50.064Z,12.23
2018-12-06T22:39:17.564Z,12.20
2018-12-06T22:41:45.252Z,12.26
2018-12-06T22:44:12.960Z,12.36
2018-12-06T22:46:40.702Z,12.39
2018-12-06T22:49:08.428Z,12.37
2018-12-06T22:51:36.154Z,12.44
2018-12-06T22:54:04.336Z,12.46
2018-12-06T22:56:32.152Z,12.47
2018-12-06T22:59:00.365Z,12.44
2018-12-06T23:01:33.585Z,12.42
2018-12-06T23:04:01.425Z,12.38
2018-12-06T23:06:29.101Z,12.31
2018-12-06T23:08:56.561Z,12.28
2018-12-06T23:11:24.496Z,12.19
2018-12-06T23:13:54.215Z,12.15
2018-12-06T23:16:22.836Z,12.16
2018-12-06T23:18:52.201Z,12.26
2018-12-06T23:21:21.636Z,12.33
2018-12-06T23:23:51.094Z,12.39
2018-12-06T23:26:18.840Z,12.37
2018-12-06T23:28:46.531Z,12.38
2018-12-06T23:31:14.186Z,12.40
2018-12-06T23:33:41.760Z,12.30
2018-12-06T23:36:09.366Z,12.38
2018-12-06T23:38:36.956Z,12.38
2018-12-06T23:41:04.496Z,12.38
2018-12-06T23:43:32.162Z,12.32
2018-12-06T23:45:59.752Z,12.27
2018-12-06T23:48:27.363Z,12.24
2018-12-06T23:51:04.823Z,12.28
2018-12-06T23:53:32.438Z,12.27
2018-12-06T23:56:00.101Z,12.26
2018-12-06T23:58:27.848Z,12.22
